Time;durP1;ratioP1;P1;durP2;ratioP2;P2;SDS_P1;SDS_P2;PMS_P1;PMS_P2;Temp;Humidity;BMP_temperature;BMP_pressure;BME280_temperature;BME280_humidity;BME280_pressure;Samples;Min_cycle;Max_cycle;Signal;HPM_P1;HPM_P2
2022/03/31 00:04:01;;;;;;;12.60;6.40;;;23.30;54.80;;;;;;216287;1293;22607;-49
2022/03/31 00:09:05;;;;;;;13.50;6.20;;;23.30;54.30;;;;;;216097;1293;22558;-50
2022/03/31 00:14:09;;;;;;;12.40;5.20;;;23.40;54.20;;;;;;216194;1294;24250;-48
2022/03/31 00:19:12;;;;;;;11.20;5.10;;;23.40;54.10;;;;;;216120;1293;22658;-46
2022/03/31 00:24:17;;;;;;;9.70;5.20;;;23.50;53.70;;;;;;216154;1293;22791;-48
2022/03/31 00:29:20;;;;;;;10.00;4.90;;;23.50;53.40;;;;;;215946;1293;22639;-44
2022/03/31 00:34:24;;;;;;;10.00;5.20;;;23.50;53.30;;;;;;215944;1293;22592;-48
2022/03/31 00:39:32;;;;;;;10.40;5.10;;;23.50;53.20;;;;;;216008;1293;22568;-48
2022/03/31 00:44:36;;;;;;;8.40;4.80;;;23.40;53.10;;;;;;216015;1293;24332;-51
2022/03/31 00:49:40;;;;;;;10.40;5.30;;;23.30;53.20;;;;;;215849;1293;22682;-47
2022/03/31 00:54:43;;;;;;;8.90;4.80;;;23.30;53.60;;;;;;215964;1293;22563;-47
2022/03/31 00:59:47;;;;;;;11.30;5.60;;;23.20;53.20;;;;;;216183;1294;22591;-49
2022/03/31 01:04:51;;;;;;;8.40;4.60;;;23.20;53.30;;;;;;216136;1293;22585;-51
2022/03/31 01:09:57;;;;;;;8.70;4.70;;;23.30;53.20;;;;;;216107;1293;24069;-47
2022/03/31 01:15:20;;;;;;;10.10;5.10;;;23.30;53.80;;;;;;216044;1294;22581;-48
2022/03/31 01:20:23;;;;;;;9.30;4.60;;;23.40;52.60;;;;;;216096;1294;25402;-45
2022/03/31 01:25:28;;;;;;;9.90;4.50;;;23.40;52.70;;;;;;216096;1293;25365;-48
2022/03/31 01:30:32;;;;;;;9.80;4.50;;;23.50;52.70;;;;;;215888;1293;22589;-50
2022/03/31 01:35:35;;;;;;;7.00;4.30;;;23.60;52.10;;;;;;215806;1293;25717;-55
2022/03/31 01:40:39;;;;;;;8.90;4.90;;;23.60;51.80;;;;;;216056;1293;22575;-49
2022/03/31 01:45:43;;;;;;;10.80;4.50;;;23.70;51.80;;;;;;216007;1293;22599;-48
2022/03/31 01:50:48;;;;;;;8.80;4.30;;;23.70;51.50;;;;;;215913;1293;22597;-48
2022/03/31 01:55:53;;;;;;;7.90;4.40;;;23.80;51.30;;;;;;216033;1293;24326;-48
2022/03/31 02:01:00;;;;;;;11.20;4.70;;;23.70;51.30;;;;;;215831;1294;25318;-48
2022/03/31 02:06:04;;;;;;;6.30;3.80;;;23.70;51.60;;;;;;215927;1293;26541;-47
2022/03/31 02:11:08;;;;;;;8.10;4.50;;;23.60;51.70;;;;;;216151;1293;24357;-48
2022/03/31 02:16:13;;;;;;;7.90;4.20;;;23.50;51.90;;;;;;215917;1293;22585;-46
2022/03/31 02:21:17;;;;;;;8.30;4.50;;;23.30;51.80;;;;;;215646;1296;22596;-50
2022/03/31 02:26:20;;;;;;;7.60;4.40;;;23.30;52.10;;;;;;216072;1294;24407;-50
2022/03/31 02:31:24;;;;;;;7.30;4.60;;;23.20;52.40;;;;;;216043;1294;22562;-47
2022/03/31 02:36:27;;;;;;;9.90;4.50;;;23.10;52.10;;;;;;216089;1293;22611;-49
2022/03/31 02:41:31;;;;;;;6.90;4.10;;;23.00;52.30;;;;;;216008;1292;25287;-48
2022/03/31 02:46:35;;;;;;;7.70;4.60;;;23.00;52.30;;;;;;215861;1294;22678;-47
2022/03/31 02:51:38;;;;;;;7.40;4.20;;;22.90;52.20;;;;;;216076;1293;22618;-47
2022/03/31 02:56:42;;;;;;;9.00;4.20;;;22.80;52.40;;;;;;215888;1293;24269;-46
2022/03/31 03:01:46;;;;;;;7.70;4.60;;;22.80;52.40;;;;;;215782;1293;22556;-48
2022/03/31 03:06:50;;;;;;;8.20;4.30;;;22.70;52.50;;;;;;216035;1293;22811;-52
2022/03/31 03:11:53;;;;;;;6.10;3.60;;;22.70;52.50;;;;;;215837;1293;22582;-52
2022/03/31 03:16:57;;;;;;;6.90;4.20;;;22.60;52.50;;;;;;215835;1293;22818;-48
2022/03/31 03:22:00;;;;;;;8.50;4.40;;;22.60;52.80;;;;;;215919;1293;24327;-49
2022/03/31 03:27:04;;;;;;;6.80;3.90;;;22.50;52.80;;;;;;215770;1293;23947;-49
2022/03/31 03:32:08;;;;;;;7.90;4.00;;;22.40;53.10;;;;;;215942;1293;22582;-48
2022/03/31 03:37:12;;;;;;;7.00;3.70;;;22.40;53.10;;;;;;215951;1293;25301;-46
2022/03/31 03:42:19;;;;;;;5.80;3.40;;;22.30;53.00;;;;;;215905;1294;23998;-47
2022/03/31 03:47:30;;;;;;;6.70;4.10;;;22.30;53.30;;;;;;215807;1293;24270;-47
2022/03/31 03:52:39;;;;;;;6.50;4.00;;;22.30;53.50;;;;;;216277;1294;22567;-46
2022/03/31 03:57:43;;;;;;;7.50;4.20;;;22.20;53.10;;;;;;216115;1294;22586;-46
2022/03/31 04:02:49;;;;;;;7.80;3.60;;;22.30;53.20;;;;;;215633;1293;25289;-46
2022/03/31 04:07:57;;;;;;;6.60;3.90;;;22.70;52.60;;;;;;215861;1293;23114;-47
2022/03/31 04:13:03;;;;;;;7.70;4.30;;;22.90;52.30;;;;;;215958;1293;26060;-45
2022/03/31 04:18:08;;;;;;;7.40;3.60;;;23.00;52.00;;;;;;215404;1296;25125;-47
2022/03/31 04:23:12;;;;;;;6.00;3.30;;;23.10;51.60;;;;;;216178;1294;22614;-54
2022/03/31 04:28:15;;;;;;;6.00;3.60;;;23.10;51.00;;;;;;216161;1293;22575;-50
2022/03/31 04:33:19;;;;;;;6.00;3.60;;;23.20;51.00;;;;;;216239;1294;23087;-48
2022/03/31 04:38:23;;;;;;;6.90;4.00;;;23.20;50.50;;;;;;215684;1296;22631;-46
2022/03/31 04:43:27;;;;;;;7.80;4.30;;;23.30;50.40;;;;;;215989;1294;22595;-48
2022/03/31 04:48:32;;;;;;;5.70;3.50;;;23.40;50.20;;;;;;215482;1296;324054;-47
2022/03/31 04:53:36;;;;;;;5.00;3.50;;;23.40;50.10;;;;;;216184;1294;24369;-47
2022/03/31 04:58:40;;;;;;;7.00;3.70;;;23.30;50.10;;;;;;215877;1293;24335;-47
2022/03/31 05:03:44;;;;;;;6.10;3.80;;;23.30;50.10;;;;;;215208;1296;22655;-45
2022/03/31 05:08:48;;;;;;;6.30;3.70;;;23.20;50.20;;;;;;216173;1293;24810;-51
2022/03/31 05:13:51;;;;;;;6.50;3.80;;;23.20;50.30;;;;;;215440;1293;22695;-48
2022/03/31 05:18:55;;;;;;;5.00;3.40;;;23.10;50.60;;;;;;216021;1293;22578;-51
2022/03/31 05:23:58;;;;;;;5.40;3.50;;;23.10;50.30;;;;;;215970;1293;22595;-53
2022/03/31 05:29:06;;;;;;;6.10;3.90;;;23.00;50.40;;;;;;215958;1294;25443;-47
2022/03/31 05:34:09;;;;;;;5.20;3.60;;;23.10;50.20;;;;;;216006;1293;25295;-48
2022/03/31 05:39:13;;;;;;;7.60;3.30;;;23.10;50.10;;;;;;215898;1293;22789;-50
2022/03/31 05:44:17;;;;;;;7.20;3.40;;;23.20;49.90;;;;;;215997;1294;24336;-48
2022/03/31 05:49:20;;;;;;;6.00;3.20;;;23.30;49.80;;;;;;216066;1293;22588;-48
2022/03/31 05:54:24;;;;;;;7.50;3.70;;;23.30;49.70;;;;;;215674;1293;22563;-49
2022/03/31 05:59:27;;;;;;;5.10;3.40;;;23.40;49.70;;;;;;216134;1293;22592;-45
2022/03/31 06:04:31;;;;;;;6.70;4.00;;;23.50;49.60;;;;;;215887;1293;22623;-45
2022/03/31 06:09:35;;;;;;;5.10;3.20;;;23.50;50.00;;;;;;215744;1294;25377;-48
2022/03/31 06:14:38;;;;;;;6.80;3.40;;;23.50;49.80;;;;;;215810;1293;25498;-46
2022/03/31 06:19:43;;;;;;;7.50;3.30;;;23.50;49.90;;;;;;215788;1293;22665;-53
2022/03/31 06:24:46;;;;;;;6.40;3.40;;;23.50;50.00;;;;;;216124;1294;25597;-48
2022/03/31 06:29:51;;;;;;;10.20;3.60;;;23.40;50.20;;;;;;215430;1296;22586;-47
2022/03/31 06:34:59;;;;;;;9.30;3.60;;;23.30;50.60;;;;;;215904;1293;22795;-50
2022/03/31 06:40:05;;;;;;;8.10;3.70;;;23.30;50.60;;;;;;215897;1293;23942;-45
2022/03/31 06:45:12;;;;;;;18.70;4.60;;;23.30;50.90;;;;;;215845;1292;23980;-48
2022/03/31 06:50:32;;;;;;;10.30;3.10;;;23.30;51.00;;;;;;215387;1293;25643;-46
2022/03/31 06:55:36;;;;;;;9.50;4.10;;;23.40;51.30;;;;;;215312;1296;25550;-45
2022/03/31 07:00:39;;;;;;;5.30;3.20;;;23.30;51.90;;;;;;215491;1293;24002;-47
2022/03/31 07:05:44;;;;;;;11.50;3.90;;;23.30;52.50;;;;;;216217;1293;24401;-47
2022/03/31 07:10:48;;;;;;;8.80;3.60;;;23.10;51.90;;;;;;215890;1293;24794;-48
2022/03/31 07:15:51;;;;;;;9.40;3.50;;;23.00;52.30;;;;;;215580;1296;22743;-50
2022/03/31 07:20:57;;;;;;;10.20;3.80;;;22.80;52.70;;;;;;216136;1293;23520;-50
2022/03/31 07:26:00;;;;;;;10.50;3.80;;;22.80;52.60;;;;;;215828;1293;25518;-53
2022/03/31 07:31:04;;;;;;;11.40;3.70;;;22.80;53.00;;;;;;215368;1296;25367;-47
2022/03/31 07:36:10;;;;;;;9.50;3.60;;;22.60;53.30;;;;;;215339;1296;23961;-47
2022/03/31 07:41:15;;;;;;;7.90;3.80;;;22.50;53.40;;;;;;215502;1295;24302;-52
2022/03/31 07:46:21;;;;;;;12.30;3.60;;;22.50;52.90;;;;;;215119;1296;24432;-48
2022/03/31 07:51:26;;;;;;;7.10;3.50;;;22.50;52.80;;;;;;215607;1296;24080;-52
2022/03/31 07:56:29;;;;;;;7.10;4.20;;;22.40;52.70;;;;;;216353;1293;22640;-49
2022/03/31 08:01:33;;;;;;;9.10;4.20;;;22.40;52.50;;;;;;215786;1293;22586;-46
2022/03/31 08:06:37;;;;;;;8.80;3.90;;;22.40;52.50;;;;;;216028;1293;24250;-49
2022/03/31 08:11:43;;;;;;;9.60;5.10;;;22.40;52.40;;;;;;215955;1294;22584;-48
2022/03/31 08:16:48;;;;;;;10.00;4.90;;;22.30;51.30;;;;;;216050;1294;22599;-52
2022/03/31 08:21:52;;;;;;;7.10;3.70;;;22.30;52.50;;;;;;216079;1293;23986;-48
2022/03/31 08:26:58;;;;;;;10.70;4.70;;;22.20;52.90;;;;;;216050;1294;25416;-47
2022/03/31 08:32:02;;;;;;;14.10;4.50;;;22.20;53.10;;;;;;216220;1294;22609;-48
2022/03/31 08:37:06;;;;;;;7.00;3.80;;;22.10;52.70;;;;;;216195;1294;25470;-49
2022/03/31 08:42:10;;;;;;;9.90;4.60;;;22.10;53.20;;;;;;216180;1294;23944;-48
2022/03/31 08:47:16;;;;;;;6.80;3.80;;;22.00;53.00;;;;;;216370;1294;22557;-49
2022/03/31 08:52:32;;;;;;;8.90;4.00;;;22.10;52.60;;;;;;216112;1294;22563;-48
2022/03/31 08:57:48;;;;;;;6.40;4.10;;;22.40;51.50;;;;;;216306;1294;24296;-50
2022/03/31 09:02:53;;;;;;;7.50;3.80;;;22.60;51.00;;;;;;216328;1294;25967;-52
2022/03/31 09:08:00;;;;;;;7.70;4.00;;;22.70;50.60;;;;;;216073;1293;25373;-50
2022/03/31 09:13:18;;;;;;;8.10;4.00;;;22.70;50.60;;;;;;216251;1294;22564;-51
2022/03/31 09:18:27;;;;;;;6.20;3.70;;;22.90;50.20;;;;;;216221;1294;25357;-53
2022/03/31 09:23:42;;;;;;;7.60;3.70;;;22.90;50.20;;;;;;215574;1296;22626;-49
2022/03/31 09:28:46;;;;;;;6.30;3.90;;;23.00;49.70;;;;;;216236;1293;23957;-48
2022/03/31 09:33:58;;;;;;;7.40;3.80;;;23.00;49.70;;;;;;216081;1294;24476;-52
2022/03/31 09:39:07;;;;;;;6.10;3.20;;;23.00;49.30;;;;;;216298;1294;24293;-50
2022/03/31 09:44:17;;;;;;;6.10;3.40;;;23.10;49.00;;;;;;215526;1296;22591;-56
2022/03/31 09:49:22;;;;;;;6.40;3.50;;;23.20;49.70;;;;;;216060;1293;27697;-47
2022/03/31 09:54:29;;;;;;;6.30;3.40;;;23.10;49.00;;;;;;216101;1293;23084;-48
2022/03/31 09:59:38;;;;;;;5.20;3.20;;;23.00;48.90;;;;;;215956;1293;22628;-49
2022/03/31 10:04:44;;;;;;;4.90;3.40;;;23.00;49.00;;;;;;216263;1294;22579;-51
2022/03/31 10:09:50;;;;;;;5.90;3.90;;;23.00;48.90;;;;;;216165;1294;22589;-48
2022/03/31 10:15:01;;;;;;;6.00;3.60;;;23.00;49.00;;;;;;216219;1294;25606;-52
2022/03/31 10:20:13;;;;;;;5.80;3.50;;;23.00;48.90;;;;;;216253;1294;22575;-55
2022/03/31 10:25:17;;;;;;;6.10;3.30;;;23.10;48.90;;;;;;216401;1294;22608;-56
2022/03/31 10:30:24;;;;;;;6.00;3.50;;;23.10;48.60;;;;;;215567;1293;22660;-52
2022/03/31 10:35:32;;;;;;;6.30;3.30;;;23.20;48.50;;;;;;216233;1293;25380;-48
2022/03/31 10:40:38;;;;;;;6.30;3.40;;;23.20;48.50;;;;;;216019;1294;24350;-51
2022/03/31 10:45:44;;;;;;;6.70;3.80;;;23.30;48.10;;;;;;215462;1296;24272;-52
2022/03/31 10:51:02;;;;;;;5.80;3.50;;;23.40;48.00;;;;;;216302;1293;22565;-47
2022/03/31 10:56:18;;;;;;;5.30;3.30;;;23.50;47.90;;;;;;216243;1293;22748;-47
2022/03/31 11:01:25;;;;;;;5.90;3.30;;;23.50;47.70;;;;;;216057;1294;25372;-51
2022/03/31 11:06:30;;;;;;;5.10;3.40;;;23.50;47.60;;;;;;216080;1292;23193;-46
2022/03/31 11:11:38;;;;;;;5.40;3.50;;;23.40;47.70;;;;;;216138;1293;22513;-49
2022/03/31 11:16:42;;;;;;;7.90;3.50;;;23.30;47.60;;;;;;215608;1296;22568;-48
2022/03/31 11:21:47;;;;;;;5.10;3.20;;;23.30;47.60;;;;;;216168;1294;22809;-49
2022/03/31 11:26:50;;;;;;;4.20;3.20;;;23.30;47.70;;;;;;215656;1296;22889;-52
2022/03/31 11:31:56;;;;;;;5.70;3.10;;;23.20;47.70;;;;;;216246;1296;22651;-55
2022/03/31 11:37:00;;;;;;;6.50;3.60;;;23.20;47.80;;;;;;216106;1293;23986;-51
2022/03/31 11:42:08;;;;;;;6.50;3.80;;;23.20;48.10;;;;;;215883;1294;22585;-49
2022/03/31 11:47:20;;;;;;;6.90;3.40;;;23.20;47.80;;;;;;215881;1294;22579;-49
2022/03/31 11:52:29;;;;;;;4.90;3.30;;;23.30;47.60;;;;;;215213;1296;22567;-51
2022/03/31 11:57:34;;;;;;;5.10;3.60;;;23.30;47.50;;;;;;216104;1294;22574;-51
2022/03/31 12:02:38;;;;;;;5.30;3.30;;;23.40;47.20;;;;;;216167;1294;25535;-61
2022/03/31 12:07:42;;;;;;;7.30;3.50;;;23.30;47.50;;;;;;215729;1293;24482;-52
2022/03/31 12:12:58;;;;;;;5.30;3.70;;;23.30;47.60;;;;;;215982;1296;22630;-54
2022/03/31 12:18:14;;;;;;;5.00;3.50;;;23.30;47.90;;;;;;216016;1293;24402;-53
2022/03/31 12:23:22;;;;;;;6.80;3.90;;;23.20;48.10;;;;;;215880;1294;24732;-51
2022/03/31 12:28:30;;;;;;;5.50;3.70;;;23.20;48.20;;;;;;215610;1294;24361;-53
2022/03/31 12:33:41;;;;;;;4.70;3.30;;;23.20;48.10;;;;;;216060;1293;25358;-58
2022/03/31 12:39:04;;;;;;;6.40;4.00;;;23.20;48.60;;;;;;217126;1294;25563;-58
2022/03/31 12:44:11;;;;;;;6.30;4.20;;;23.20;49.10;;;;;;215608;1296;22677;-58
2022/03/31 12:49:37;;;;;;;5.50;3.50;;;23.10;48.20;;;;;;215966;1296;24363;-58
2022/03/31 12:54:54;;;;;;;5.30;3.70;;;23.10;48.10;;;;;;215409;1296;22520;-50
2022/03/31 13:00:12;;;;;;;5.30;3.60;;;23.10;48.00;;;;;;215766;1296;24118;-59
2022/03/31 13:05:24;;;;;;;6.60;3.60;;;23.10;48.30;;;;;;216137;1293;24326;-55
2022/03/31 13:10:28;;;;;;;6.30;3.80;;;23.20;47.80;;;;;;216234;1293;24247;-58
2022/03/31 13:15:32;;;;;;;5.20;3.30;;;23.20;47.70;;;;;;215876;1294;23100;-59
2022/03/31 13:20:35;;;;;;;5.80;3.70;;;23.30;47.60;;;;;;215570;1293;25937;-57
2022/03/31 13:25:40;;;;;;;5.50;3.80;;;23.40;47.50;;;;;;215895;1296;22575;-56
2022/03/31 13:30:43;;;;;;;5.20;3.50;;;23.40;47.30;;;;;;215757;1293;22818;-59
2022/03/31 13:35:47;;;;;;;6.40;3.70;;;23.40;47.10;;;;;;215759;1297;25353;-45
2022/03/31 13:40:51;;;;;;;4.60;3.50;;;23.40;47.30;;;;;;215801;1296;25410;-46
2022/03/31 13:45:55;;;;;;;6.70;4.00;;;23.50;47.00;;;;;;216038;1294;25390;-49
2022/03/31 13:50:59;;;;;;;5.20;3.30;;;23.50;47.10;;;;;;215983;1294;22639;-46
2022/03/31 13:56:05;;;;;;;6.30;4.50;;;23.50;47.00;;;;;;216184;1294;25484;-46
2022/03/31 14:01:12;;;;;;;6.20;4.40;;;23.50;46.80;;;;;;216140;1294;24327;-48
2022/03/31 14:06:18;;;;;;;11.40;5.10;;;23.50;46.70;;;;;;215710;1293;23938;-47
2022/03/31 14:11:28;;;;;;;8.20;4.50;;;23.50;47.20;;;;;;215753;1293;22917;-44
2022/03/31 14:16:34;;;;;;;10.20;4.80;;;23.40;47.40;;;;;;216087;1294;22724;-48
2022/03/31 14:21:48;;;;;;;11.20;4.80;;;23.40;48.40;;;;;;216133;1294;22590;-45
2022/03/31 14:26:51;;;;;;;9.30;4.70;;;23.30;48.30;;;;;;216057;1293;22582;-50
2022/03/31 14:31:56;;;;;;;13.30;5.10;;;23.10;49.20;;;;;;215904;1293;22666;-45
2022/03/31 14:37:17;;;;;;;10.10;5.30;;;23.10;49.70;;;;;;215742;1294;22883;-51
2022/03/31 14:42:22;;;;;;;9.40;4.80;;;23.00;49.90;;;;;;215701;1293;22723;-46
2022/03/31 14:47:25;;;;;;;10.00;4.70;;;23.00;50.00;;;;;;215731;1293;25312;-44
2022/03/31 14:52:41;;;;;;;12.90;5.40;;;22.90;51.10;;;;;;215950;1293;24372;-45
2022/03/31 14:57:57;;;;;;;10.70;5.10;;;22.90;52.40;;;;;;215593;1293;23104;-44
2022/03/31 15:03:08;;;;;;;18.10;5.60;;;23.00;53.40;;;;;;216038;1294;22570;-48
2022/03/31 15:08:14;;;;;;;8.50;5.00;;;22.90;54.10;;;;;;215818;1296;24300;-46
2022/03/31 15:18:51;;;;;;;14.20;5.60;;;22.70;54.20;;;;;;215069;1294;25269;-49
2022/03/31 15:24:04;;;;;;;11.70;5.30;;;22.80;54.50;;;;;;215233;1293;25612;-50
2022/03/31 15:29:12;;;;;;;9.10;5.30;;;22.70;54.20;;;;;;215726;1294;22638;-51
2022/03/31 15:34:23;;;;;;;11.00;5.70;;;22.70;54.00;;;;;;215587;1293;25638;-52
2022/03/31 15:39:31;;;;;;;8.80;4.90;;;22.60;54.20;;;;;;215449;1293;24746;-52
2022/03/31 15:44:50;;;;;;;;;;;22.50;53.70;;;;;;215960;1294;22598;-46
2022/03/31 15:49:54;;;;;;;12.80;5.50;;;22.50;53.80;;;;;;215570;1293;24104;-47
2022/03/31 15:55:00;;;;;;;12.50;5.00;;;22.50;53.60;;;;;;215601;1294;25445;-47
2022/03/31 16:00:05;;;;;;;9.40;5.10;;;22.40;53.90;;;;;;215310;1293;24259;-46
2022/03/31 16:05:14;;;;;;;15.10;5.10;;;22.40;53.60;;;;;;215865;1293;25458;-46
2022/03/31 16:10:18;;;;;;;20.40;6.10;;;22.40;53.50;;;;;;215897;1294;22593;-48
2022/03/31 16:15:23;;;;;;;17.60;5.40;;;22.40;53.80;;;;;;215838;1293;23991;-48
2022/03/31 16:20:32;;;;;;;15.80;6.00;;;22.40;54.60;;;;;;215605;1293;22590;-47
2022/03/31 16:25:45;;;;;;;13.80;6.20;;;22.40;54.60;;;;;;215463;1294;24368;-48
2022/03/31 16:30:55;;;;;;;14.20;5.40;;;22.40;55.30;;;;;;215575;1293;24302;-46
2022/03/31 16:36:18;;;;;;;8.80;5.10;;;22.40;55.00;;;;;;215732;1294;22593;-46
2022/03/31 16:41:38;;;;;;;13.70;5.50;;;22.30;54.60;;;;;;215586;1293;24504;-44
2022/03/31 16:46:55;;;;;;;13.90;5.90;;;22.20;54.70;;;;;;215733;1294;250966;-42
2022/03/31 16:52:19;;;;;;;19.20;7.30;;;22.20;55.10;;;;;;215005;1296;26702;-51
2022/03/31 16:57:23;;;;;;;16.00;6.10;;;22.30;56.10;;;;;;215896;1294;22729;-49
2022/03/31 17:02:27;;;;;;;12.80;6.50;;;22.50;56.90;;;;;;215700;1293;22611;-46
2022/03/31 17:07:34;;;;;;;10.70;5.40;;;22.80;56.40;;;;;;215743;1293;22612;-45
2022/03/31 17:12:43;;;;;;;17.30;6.60;;;22.80;55.70;;;;;;215965;1293;22800;-46
2022/03/31 17:17:48;;;;;;;15.40;6.00;;;23.00;55.20;;;;;;215669;1293;25579;-47
2022/03/31 17:22:51;;;;;;;12.90;6.20;;;23.20;54.70;;;;;;215700;1294;22592;-49
2022/03/31 17:27:58;;;;;;;12.00;6.00;;;23.20;54.40;;;;;;215730;1294;22557;-52
2022/03/31 17:33:03;;;;;;;13.30;5.50;;;23.20;54.10;;;;;;215870;1294;24375;-46
2022/03/31 17:38:08;;;;;;;11.30;6.20;;;23.20;53.80;;;;;;215629;1293;22636;-50
2022/03/31 17:43:13;;;;;;;15.20;5.80;;;23.30;53.60;;;;;;216086;1294;22606;-48
2022/03/31 17:48:39;;;;;;;9.70;5.00;;;23.40;53.20;;;;;;216067;1294;24293;-49
2022/03/31 17:53:44;;;;;;;13.20;5.80;;;23.50;53.00;;;;;;216067;1294;22597;-43
2022/03/31 17:58:48;;;;;;;14.90;5.70;;;23.50;52.60;;;;;;216118;1294;25587;-46
2022/03/31 18:03:51;;;;;;;11.50;5.70;;;23.40;53.20;;;;;;216089;1293;22575;-57
2022/03/31 18:08:55;;;;;;;15.70;6.20;;;23.30;55.40;;;;;;216062;1293;23048;-50
2022/03/31 18:13:59;;;;;;;30.10;8.40;;;23.20;56.20;;;;;;215775;1293;25303;-47
2022/03/31 18:19:07;;;;;;;17.50;7.00;;;23.20;56.90;;;;;;215985;1293;22704;-44
2022/03/31 18:24:13;;;;;;;22.50;7.30;;;23.30;59.00;;;;;;215654;1293;24591;-55
2022/03/31 18:34:47;;;;;;;23.60;6.00;;;23.30;59.80;;;;;;215973;1293;22573;-47
2022/03/31 18:39:51;;;;;;;15.80;6.60;;;23.40;59.20;;;;;;215801;1293;25357;-48
2022/03/31 18:44:55;;;;;;;13.30;6.80;;;23.30;59.30;;;;;;215881;1293;24434;-51
2022/03/31 18:50:03;;;;;;;13.70;6.00;;;23.30;58.70;;;;;;216073;1294;22789;-46
2022/03/31 18:55:08;;;;;;;12.00;5.90;;;23.20;59.20;;;;;;216035;1293;22609;-49
2022/03/31 19:00:18;;;;;;;14.50;5.50;;;23.30;59.60;;;;;;215664;1293;22573;-48
2022/03/31 19:05:50;;;;;;;14.50;5.30;;;23.40;61.10;;;;;;215676;1294;22717;-45
2022/03/31 19:11:24;;;;;;;14.50;6.30;;;23.50;62.10;;;;;;215762;1293;24339;-45
2022/03/31 19:17:09;;;;;;;13.50;5.10;;;23.70;61.30;;;;;;215913;1293;24351;-44
2022/03/31 19:22:22;;;;;;;15.50;5.60;;;23.80;61.90;;;;;;215719;1293;22570;-46
2022/03/31 19:27:51;;;;;;;10.00;5.30;;;23.70;62.40;;;;;;215838;1293;22569;-46
2022/03/31 19:33:28;;;;;;;11.40;4.90;;;23.70;62.30;;;;;;215250;1295;24331;-46
2022/03/31 19:38:52;;;;;;;15.40;5.70;;;23.60;62.20;;;;;;215824;1293;22602;-45
2022/03/31 19:44:17;;;;;;;11.80;4.80;;;23.50;62.60;;;;;;215883;1293;22772;-47
2022/03/31 19:49:29;;;;;;;10.10;4.60;;;23.40;62.80;;;;;;215829;1293;24153;-44
2022/03/31 19:54:35;;;;;;;17.10;5.20;;;23.30;62.70;;;;;;216157;1293;22570;-42
2022/03/31 19:59:46;;;;;;;12.50;5.00;;;23.30;63.10;;;;;;215645;1296;22595;-41
2022/03/31 20:05:01;;;;;;;11.70;5.30;;;23.10;62.80;;;;;;216025;1293;24359;-44
2022/03/31 20:10:06;;;;;;;12.60;6.20;;;23.10;63.40;;;;;;215993;1293;22580;-43
2022/03/31 20:15:10;;;;;;;10.10;4.50;;;23.00;63.90;;;;;;215867;1293;22603;-43
2022/03/31 20:20:15;;;;;;;13.10;5.30;;;22.90;63.20;;;;;;215909;1293;22591;-41
2022/03/31 20:25:19;;;;;;;11.70;4.80;;;22.90;63.20;;;;;;216015;1294;23002;-42
2022/03/31 20:30:26;;;;;;;16.80;5.00;;;22.70;63.30;;;;;;216021;1293;24339;-42
2022/03/31 20:35:31;;;;;;;12.00;5.10;;;22.70;63.80;;;;;;216018;1293;22810;-41
2022/03/31 20:40:38;;;;;;;10.40;4.20;;;22.70;63.20;;;;;;216365;1293;22589;-41
2022/03/31 20:45:42;;;;;;;8.40;4.20;;;22.60;62.30;;;;;;216806;1294;22574;-38
2022/03/31 20:50:53;;;;;;;10.40;4.30;;;22.60;61.70;;;;;;216283;1294;25378;-40
2022/03/31 20:55:58;;;;;;;9.50;4.10;;;22.60;62.90;;;;;;215679;1293;22602;-39
2022/03/31 21:01:03;;;;;;;9.20;5.00;;;22.40;62.20;;;;;;215975;1293;22593;-40
2022/03/31 21:06:10;;;;;;;11.90;4.40;;;22.40;62.20;;;;;;215853;1293;25345;-42
2022/03/31 21:11:16;;;;;;;11.80;4.20;;;22.40;63.10;;;;;;215868;1294;22723;-43
2022/03/31 21:16:21;;;;;;;12.50;4.70;;;22.40;62.90;;;;;;215086;1296;22594;-38
2022/03/31 21:21:26;;;;;;;7.50;3.80;;;22.40;62.80;;;;;;215374;1293;22617;-39
2022/03/31 21:26:30;;;;;;;10.70;3.80;;;22.40;62.60;;;;;;215937;1293;26718;-39
2022/03/31 21:31:33;;;;;;;11.60;4.30;;;22.30;63.10;;;;;;215642;1293;23917;-41
2022/03/31 21:36:44;;;;;;;8.10;3.80;;;22.30;62.80;;;;;;215884;1294;23220;-39
2022/03/31 21:41:48;;;;;;;9.30;4.40;;;22.20;62.80;;;;;;215726;1292;22589;-39
2022/03/31 21:46:59;;;;;;;8.70;4.00;;;22.20;62.60;;;;;;215925;1293;22564;-39
2022/03/31 21:52:06;;;;;;;8.30;3.80;;;22.10;62.40;;;;;;215865;1293;25410;-40
2022/03/31 21:57:11;;;;;;;6.90;3.70;;;22.10;63.10;;;;;;215497;1293;26020;-41
2022/03/31 22:02:16;;;;;;;6.90;3.70;;;22.10;63.10;;;;;;215518;1293;22598;-40
2022/03/31 22:07:27;;;;;;;7.00;4.10;;;22.40;63.00;;;;;;215784;1293;25414;-39
2022/03/31 22:12:31;;;;;;;9.00;4.30;;;22.70;62.30;;;;;;215473;1293;22560;-39
2022/03/31 22:17:35;;;;;;;9.40;4.10;;;22.80;61.90;;;;;;215601;1293;22591;-40
2022/03/31 22:22:38;;;;;;;8.60;4.30;;;23.00;61.50;;;;;;215997;1293;25567;-39
2022/03/31 22:27:42;;;;;;;7.70;3.80;;;23.10;61.20;;;;;;215789;1293;25398;-38
2022/03/31 22:32:48;;;;;;;12.50;4.10;;;23.20;61.40;;;;;;215293;1293;25624;-39
2022/03/31 22:37:52;;;;;;;10.70;4.10;;;23.30;60.70;;;;;;222939;1292;22525;-41
2022/03/31 22:42:56;;;;;;;14.20;4.00;;;23.40;59.90;;;;;;216792;1292;22604;-40
2022/03/31 22:48:00;;;;;;;7.40;4.00;;;23.40;60.00;;;;;;215983;1293;25604;-39
2022/03/31 22:53:04;;;;;;;10.40;4.00;;;23.30;60.00;;;;;;216320;1293;23981;-39
2022/03/31 22:58:07;;;;;;;11.20;4.10;;;23.30;60.50;;;;;;215615;1293;22884;-39
2022/03/31 23:03:12;;;;;;;12.20;4.10;;;23.20;60.20;;;;;;216071;1293;22586;-39
2022/03/31 23:08:17;;;;;;;14.30;4.00;;;23.10;60.10;;;;;;216199;1292;22710;-38
2022/03/31 23:13:23;;;;;;;8.70;3.50;;;23.10;60.30;;;;;;216277;1294;24297;-40
2022/03/31 23:18:26;;;;;;;6.80;3.50;;;23.00;60.20;;;;;;216255;1293;22643;-38
2022/03/31 23:23:30;;;;;;;5.80;3.30;;;23.00;60.10;;;;;;215883;1293;22865;-40
2022/03/31 23:28:34;;;;;;;5.70;3.00;;;23.00;60.10;;;;;;216275;1293;24469;-40
2022/03/31 23:33:39;;;;;;;6.30;3.30;;;23.00;59.90;;;;;;216118;1293;22635;-40
2022/03/31 23:38:44;;;;;;;9.50;3.60;;;23.10;59.70;;;;;;216027;1293;22738;-40
2022/03/31 23:43:47;;;;;;;5.60;3.50;;;23.20;59.40;;;;;;215752;1293;24377;-43
2022/03/31 23:48:51;;;;;;;5.50;3.00;;;23.20;59.10;;;;;;216254;1293;22650;-40
2022/03/31 23:53:55;;;;;;;9.20;3.80;;;23.30;58.70;;;;;;216041;1294;25301;-40
2022/03/31 23:58:59;;;;;;;9.40;4.20;;;23.30;58.70;;;;;;215715;1296;22607;-39
